Time;durP1;ratioP1;P1;durP2;ratioP2;P2;SDS_P1;SDS_P2;PMS_P1;PMS_P2;Temp;Humidity;BMP_temperature;BMP_pressure;BME280_temperature;BME280_humidity;BME280_pressure;Samples;Min_cycle;Max_cycle;Signal;HPM_P1;HPM_P2
2023/07/19 00:00:15;;;;;;;12.35;6.80;;;;;;;20.15;97.19;96068.63;5089711;28;20071;-73
2023/07/19 00:02:41;;;;;;;10.80;6.10;;;;;;;20.12;95.61;96068.59;5096050;28;20044;-73
2023/07/19 00:05:10;;;;;;;8.20;5.47;;;;;;;20.13;95.64;96067.41;5092887;27;20047;-73
2023/07/19 00:07:36;;;;;;;14.23;6.78;;;;;;;20.04;95.20;96063.00;5102960;28;20448;-73
2023/07/19 00:10:03;;;;;;;8.13;5.90;;;;;;;20.08;95.25;96058.31;5091736;28;20038;-73
2023/07/19 00:12:29;;;;;;;10.25;5.57;;;;;;;20.13;95.71;96059.13;5107131;27;20043;-74
2023/07/19 00:14:56;;;;;;;9.80;5.90;;;;;;;20.15;95.05;96051.22;5106540;27;20040;-73
2023/07/19 00:17:23;;;;;;;8.75;5.68;;;;;;;20.20;94.90;96054.44;5089384;28;20135;-73
2023/07/19 00:23:25;;;;;;;9.27;6.43;;;;;;;20.21;95.37;96046.94;5108727;27;20045;-73
2023/07/19 00:25:51;;;;;;;10.68;6.18;;;;;;;20.21;95.17;96038.63;5110395;27;20039;-73
2023/07/19 00:28:18;;;;;;;13.23;6.40;;;;;;;20.17;95.33;96037.81;5109888;27;20040;-73
2023/07/19 00:30:44;;;;;;;9.32;5.97;;;;;;;20.22;95.85;96046.53;5110167;27;20042;-73
2023/07/19 00:33:11;;;;;;;10.02;5.53;;;;;;;20.22;95.47;96045.75;5109614;28;20044;-74
2023/07/19 00:35:40;;;;;;;12.68;6.07;;;;;;;20.24;94.89;96043.38;5110040;28;20050;-73
2023/07/19 00:38:07;;;;;;;11.48;6.40;;;;;;;20.27;94.62;96050.91;5109302;28;20131;-74
2023/07/19 00:40:35;;;;;;;10.60;5.65;;;;;;;20.33;94.69;96057.63;5109620;28;20035;-73
2023/07/19 00:43:01;;;;;;;9.15;5.88;;;;;;;20.35;94.73;96046.97;5091199;28;20383;-74
2023/07/19 00:45:28;;;;;;;11.25;6.68;;;;;;;20.19;92.71;96046.50;5089561;28;20060;-73
2023/07/19 00:47:55;;;;;;;9.90;6.13;;;;;;;20.23;92.28;96048.13;5089815;28;20040;-73
2023/07/19 00:50:22;;;;;;;8.35;5.65;;;;;;;20.27;92.76;96048.13;5097052;28;20051;-73
2023/07/19 00:52:51;;;;;;;10.50;5.80;;;;;;;20.30;92.88;96036.28;5111771;28;20040;-73
2023/07/19 00:55:18;;;;;;;16.98;7.00;;;;;;;20.29;92.51;96037.47;5110812;28;20051;-73
2023/07/19 00:57:47;;;;;;;8.88;5.45;;;;;;;20.31;91.96;96032.34;5109766;27;20043;-74
2023/07/19 01:00:14;;;;;;;9.95;6.00;;;;;;;20.31;91.76;96038.69;5109187;27;20044;-74
2023/07/19 01:02:40;;;;;;;8.80;6.00;;;;;;;20.30;91.81;96030.75;5110125;27;20054;-73
2023/07/19 01:05:07;;;;;;;12.20;6.15;;;;;;;20.23;91.60;96025.19;5109590;27;20055;-74
2023/07/19 01:07:34;;;;;;;8.60;5.55;;;;;;;20.24;90.46;96037.84;5111177;27;20039;-74
2023/07/19 01:10:00;;;;;;;10.70;5.80;;;;;;;20.21;90.24;96042.19;5113296;27;20387;-73
2023/07/19 01:12:27;;;;;;;10.50;5.65;;;;;;;20.18;90.31;96039.41;5112853;27;20039;-74
2023/07/19 01:14:54;;;;;;;9.45;5.63;;;;;;;20.13;90.66;96042.53;5113594;27;20138;-73
2023/07/19 01:17:21;;;;;;;11.57;5.68;;;;;;;20.06;90.64;96041.31;5113271;27;20047;-73
2023/07/19 01:19:48;;;;;;;11.98;6.47;;;;;;;19.99;90.65;96038.53;5112074;28;20039;-73
2023/07/19 01:22:14;;;;;;;10.23;6.20;;;;;;;19.94;91.21;96038.09;5113006;28;20517;-74
2023/07/19 01:24:42;;;;;;;9.18;5.55;;;;;;;19.99;91.06;96044.06;5113524;28;20602;-74
2023/07/19 01:27:09;;;;;;;9.63;6.10;;;;;;;20.01;90.66;96049.19;5112777;28;20048;-73
2023/07/19 01:29:38;;;;;;;9.27;5.63;;;;;;;20.01;90.50;96058.28;5113082;27;20493;-74
2023/07/19 01:32:06;;;;;;;11.00;5.93;;;;;;;19.77;91.21;96054.16;5112938;27;20139;-74
2023/07/19 01:34:32;;;;;;;13.43;5.82;;;;;;;19.89;91.94;96057.78;5113379;28;20498;-74
2023/07/19 01:36:59;;;;;;;7.97;5.45;;;;;;;19.91;91.88;96053.47;5113293;27;20044;-74
2023/07/19 01:39:25;;;;;;;8.38;5.40;;;;;;;19.97;92.40;96043.63;5100730;28;20046;-73
2023/07/19 01:41:53;;;;;;;10.60;5.88;;;;;;;19.99;92.54;96044.06;5104593;28;20513;-74
2023/07/19 01:44:20;;;;;;;9.68;5.63;;;;;;;20.04;93.11;96045.63;5099903;27;20051;-74
2023/07/19 01:46:46;;;;;;;8.63;5.63;;;;;;;20.01;92.66;96038.13;5092985;27;20044;-73
2023/07/19 01:49:13;;;;;;;9.60;6.10;;;;;;;20.00;91.95;96026.28;5108880;27;20048;-74
2023/07/19 01:51:39;;;;;;;11.00;5.53;;;;;;;20.02;92.04;96025.91;5112654;27;20044;-74
2023/07/19 01:54:06;;;;;;;10.75;5.78;;;;;;;20.03;92.18;96036.56;5112472;27;20453;-74
2023/07/19 01:56:32;;;;;;;11.70;5.78;;;;;;;19.99;91.54;96033.00;5112931;27;20419;-74
2023/07/19 01:59:00;;;;;;;9.88;5.43;;;;;;;19.95;91.32;96028.63;5112374;27;20043;-74
2023/07/19 02:01:26;;;;;;;16.67;6.68;;;;;;;19.82;90.39;96025.38;5112137;27;20401;-73
2023/07/19 02:03:53;;;;;;;10.07;5.78;;;;;;;19.83;89.92;96035.25;5112493;28;20525;-74
2023/07/19 02:06:19;;;;;;;12.02;6.05;;;;;;;19.84;90.00;96030.53;5112138;27;20053;-74
2023/07/19 02:08:46;;;;;;;9.93;5.78;;;;;;;19.85;89.76;96037.66;5112589;27;20047;-73
2023/07/19 02:11:13;;;;;;;12.95;6.53;;;;;;;19.77;89.91;96040.34;5111194;27;20036;-74
2023/07/19 02:13:40;;;;;;;10.18;5.90;;;;;;;19.74;89.93;96043.13;5096773;28;20040;-75
2023/07/19 02:16:07;;;;;;;8.20;5.63;;;;;;;19.74;89.88;96034.81;5091509;28;20051;-74
2023/07/19 02:18:34;;;;;;;11.25;5.80;;;;;;;19.67;89.64;96041.06;5092217;28;20485;-74
2023/07/19 02:21:00;;;;;;;11.88;6.57;;;;;;;19.69;89.81;96041.50;5108348;27;20051;-73
2023/07/19 02:23:27;;;;;;;11.80;5.95;;;;;;;19.69;90.28;96040.72;5111929;27;20399;-74
2023/07/19 02:25:53;;;;;;;13.15;6.38;;;;;;;19.69;89.85;96046.25;5111908;27;20043;-73
2023/07/19 02:28:20;;;;;;;12.05;6.00;;;;;;;19.60;87.84;96043.00;5111910;28;20048;-74
2023/07/19 02:30:47;;;;;;;13.15;5.45;;;;;;;19.60;87.16;96048.53;5111683;28;20418;-73
2023/07/19 02:33:15;;;;;;;9.02;5.22;;;;;;;19.62;86.29;96057.22;5111977;28;20040;-73
2023/07/19 02:35:42;;;;;;;11.25;5.32;;;;;;;19.61;87.09;96050.91;5112700;27;20048;-73
2023/07/19 02:38:09;;;;;;;10.50;5.30;;;;;;;19.67;87.42;96048.56;5111954;28;20056;-74
2023/07/19 02:40:36;;;;;;;12.70;5.43;;;;;;;19.66;88.18;96066.34;5111375;27;20112;-74
2023/07/19 02:43:03;;;;;;;9.20;5.53;;;;;;;19.65;87.53;96065.53;5111686;27;20509;-74
2023/07/19 02:45:29;;;;;;;13.73;6.32;;;;;;;19.67;87.07;96065.16;5112344;27;20066;-73
2023/07/19 02:47:56;;;;;;;10.20;5.57;;;;;;;19.70;87.29;96064.38;5111527;27;20046;-73
2023/07/19 02:50:24;;;;;;;10.55;5.20;;;;;;;19.78;86.42;96054.97;5111357;27;20043;-74
2023/07/19 02:52:50;;;;;;;15.30;6.03;;;;;;;19.70;87.70;96051.38;5112609;28;20039;-74
2023/07/19 02:55:17;;;;;;;14.73;5.25;;;;;;;19.69;87.19;96035.97;5111956;28;20435;-73
2023/07/19 02:57:43;;;;;;;14.48;6.80;;;;;;;19.68;86.86;96033.56;5115631;28;20138;-74
2023/07/19 03:00:11;;;;;;;11.15;5.43;;;;;;;19.58;86.04;96046.13;5114622;27;20043;-74
2023/07/19 03:02:37;;;;;;;11.43;4.85;;;;;;;19.67;86.02;96043.84;5094226;28;20040;-74
2023/07/19 03:05:05;;;;;;;15.23;5.63;;;;;;;19.66;86.78;96035.94;5094212;28;20050;-74
2023/07/19 03:07:34;;;;;;;10.18;5.22;;;;;;;19.71;85.96;96043.88;5095223;28;20040;-74
2023/07/19 03:10:00;;;;;;;12.18;5.55;;;;;;;19.60;84.21;96059.59;5102228;28;20047;-73
2023/07/19 03:12:27;;;;;;;12.90;5.68;;;;;;;19.53;84.41;96057.53;5101934;28;20040;-73
2023/07/19 03:14:54;;;;;;;13.13;5.25;;;;;;;19.58;84.50;96050.88;5096090;28;20040;-74
2023/07/19 03:17:20;;;;;;;8.88;4.68;;;;;;;19.66;84.88;96052.53;5095054;28;20130;-73
2023/07/19 03:19:47;;;;;;;10.85;5.13;;;;;;;19.65;85.95;96048.19;5112577;28;20044;-73
2023/07/19 03:22:14;;;;;;;14.90;4.70;;;;;;;19.64;84.93;96043.84;5114950;27;20055;-74
2023/07/19 03:24:42;;;;;;;10.13;4.82;;;;;;;19.65;85.22;96046.22;5116598;27;20048;-73
2023/07/19 03:27:08;;;;;;;8.48;5.10;;;;;;;19.60;86.31;96031.97;5115026;27;20120;-74
2023/07/19 03:29:36;;;;;;;16.20;5.63;;;;;;;19.51;85.57;96023.97;5115940;27;20044;-74
2023/07/19 03:32:02;;;;;;;12.48;5.47;;;;;;;19.56;86.39;96031.91;5114503;28;20047;-73
2023/07/19 03:34:29;;;;;;;13.52;6.00;;;;;;;19.50;85.95;96031.47;5114135;27;20046;-73
2023/07/19 03:36:56;;;;;;;11.52;5.10;;;;;;;19.53;85.51;96035.44;5113985;27;20557;-73
2023/07/19 03:39:22;;;;;;;12.68;5.50;;;;;;;19.39;85.54;96035.34;5111859;27;20051;-74
2023/07/19 03:41:50;;;;;;;14.52;5.53;;;;;;;19.24;87.17;96020.63;5112870;27;20036;-74
2023/07/19 03:44:17;;;;;;;11.45;5.05;;;;;;;19.25;87.78;96030.47;5113320;27;20058;-73
2023/07/19 03:46:43;;;;;;;14.43;5.25;;;;;;;19.39;87.73;96047.16;5108102;27;20051;-74
2023/07/19 03:49:10;;;;;;;12.25;5.20;;;;;;;19.39;87.06;96036.13;5111556;27;20047;-73
2023/07/19 03:51:37;;;;;;;12.68;5.57;;;;;;;19.21;87.47;96022.19;5111491;27;20524;-74
2023/07/19 03:54:03;;;;;;;12.88;5.60;;;;;;;19.15;87.50;96026.44;5110150;28;20502;-74
2023/07/19 03:56:30;;;;;;;10.75;4.68;;;;;;;19.15;87.80;96022.91;5110579;27;20048;-74
2023/07/19 03:58:58;;;;;;;12.85;5.40;;;;;;;19.17;87.58;96026.88;5110750;27;20052;-73
2023/07/19 04:01:24;;;;;;;10.52;4.68;;;;;;;19.12;87.85;96013.44;5110293;27;20122;-73
2023/07/19 04:03:51;;;;;;;13.48;5.88;;;;;;;19.11;87.78;96022.09;5110422;27;20067;-74
2023/07/19 04:06:18;;;;;;;9.73;4.70;;;;;;;19.31;87.16;96009.63;5110033;27;20425;-74
2023/07/19 04:08:44;;;;;;;10.90;4.80;;;;;;;19.40;86.75;96012.84;5110426;27;20051;-73
2023/07/19 04:11:10;;;;;;;12.13;5.28;;;;;;;19.45;86.29;96009.72;5109260;27;20048;-73
2023/07/19 04:13:37;;;;;;;13.40;4.93;;;;;;;19.16;87.39;96017.03;5095135;28;20044;-73
2023/07/19 04:16:05;;;;;;;16.48;4.95;;;;;;;19.29;86.87;96007.25;5089691;28;20046;-74
2023/07/19 04:18:31;;;;;;;12.68;4.68;;;;;;;19.43;85.85;96012.09;5101464;28;20046;-73
2023/07/19 04:20:58;;;;;;;8.43;4.45;;;;;;;19.53;85.71;96000.34;5110214;28;20059;-73
2023/07/19 04:23:25;;;;;;;11.73;4.93;;;;;;;19.40;85.64;96001.81;5109654;28;20055;-73
2023/07/19 04:25:51;;;;;;;12.40;5.10;;;;;;;19.35;85.50;96004.94;5110372;28;20047;-74
2023/07/19 04:28:19;;;;;;;12.50;5.82;;;;;;;19.36;85.14;96006.50;5109913;28;20048;-73
2023/07/19 04:30:46;;;;;;;13.13;4.85;;;;;;;19.30;86.87;96002.53;5110075;28;20093;-73
2023/07/19 04:33:15;;;;;;;13.23;5.78;;;;;;;19.29;86.94;95996.22;5109465;27;20491;-73
2023/07/19 04:35:41;;;;;;;7.88;4.47;;;;;;;19.47;86.68;96001.06;5112556;27;20039;-73
2023/07/19 04:38:08;;;;;;;11.77;4.70;;;;;;;19.51;86.64;95990.84;5110924;27;20054;-74
2023/07/19 04:40:34;;;;;;;11.05;5.00;;;;;;;19.59;86.83;95997.22;5108957;27;20047;-74
2023/07/19 04:43:01;;;;;;;14.90;5.00;;;;;;;19.62;87.32;96007.50;5103407;27;20043;-75
2023/07/19 04:45:30;;;;;;;10.30;4.40;;;;;;;19.54;85.74;96010.19;5114257;27;20046;-74
2023/07/19 04:47:56;;;;;;;11.52;4.82;;;;;;;19.48;85.70;96017.25;5114538;27;20050;-73
2023/07/19 04:50:24;;;;;;;11.63;5.28;;;;;;;19.43;85.35;96023.16;5113979;27;20050;-73
2023/07/19 04:52:51;;;;;;;13.32;5.10;;;;;;;19.59;85.69;96024.81;5114065;27;20406;-74
2023/07/19 04:55:18;;;;;;;13.50;5.10;;;;;;;19.65;85.15;96023.31;5113461;28;20050;-74
2023/07/19 04:57:44;;;;;;;15.35;5.75;;;;;;;19.63;86.53;96020.13;5113907;27;20062;-73
2023/07/19 05:00:13;;;;;;;9.55;4.72;;;;;;;19.67;85.25;96020.94;5113244;28;20131;-73
2023/07/19 05:02:40;;;;;;;9.65;5.47;;;;;;;19.65;86.41;96034.38;5113436;27;20502;-74
2023/07/19 05:05:07;;;;;;;10.20;4.72;;;;;;;19.67;86.12;96041.06;5113755;27;20048;-74
2023/07/19 05:07:36;;;;;;;16.38;6.05;;;;;;;19.73;86.28;96047.03;5113877;27;20045;-74
2023/07/19 05:10:04;;;;;;;10.93;4.95;;;;;;;19.72;86.47;96039.94;5112752;27;20397;-74
2023/07/19 05:12:31;;;;;;;18.20;6.53;;;;;;;19.58;87.24;96039.81;5103929;28;20451;-73
2023/07/19 05:14:57;;;;;;;10.07;5.00;;;;;;;19.78;86.95;96043.91;5113671;27;20039;-73
2023/07/19 05:17:24;;;;;;;13.57;5.28;;;;;;;19.92;86.61;96049.53;5113190;27;20047;-73
2023/07/19 05:19:51;;;;;;;13.35;4.95;;;;;;;20.01;86.11;96057.47;5113652;28;20051;-74
2023/07/19 05:22:18;;;;;;;17.90;5.70;;;;;;;19.98;85.88;96059.03;5112785;28;20040;-74
2023/07/19 05:24:45;;;;;;;13.73;5.10;;;;;;;19.90;85.85;96062.94;5113209;27;20051;-74
2023/07/19 05:27:15;;;;;;;14.02;5.30;;;;;;;19.80;88.07;96045.13;5112987;27;20510;-74
2023/07/19 05:29:42;;;;;;;12.60;5.70;;;;;;;19.87;88.21;96052.66;5113298;27;20048;-74
2023/07/19 05:32:09;;;;;;;17.02;5.30;;;;;;;20.00;86.90;96062.22;5112590;27;20123;-74
2023/07/19 05:34:35;;;;;;;15.93;5.75;;;;;;;19.80;85.87;96066.44;5112838;28;20695;-74
2023/07/19 05:37:03;;;;;;;14.85;5.45;;;;;;;19.84;87.27;96092.13;5112907;27;20669;-74
2023/07/19 05:39:34;;;;;;;13.43;5.38;;;;;;;20.02;87.42;96090.25;5112702;28;20130;-74
2023/07/19 05:42:03;;;;;;;10.85;4.28;;;;;;;20.06;86.79;96093.84;5106383;28;20067;-75
2023/07/19 05:44:29;;;;;;;15.02;5.72;;;;;;;20.00;87.02;96084.34;5111985;27;20466;-74
2023/07/19 05:46:56;;;;;;;12.35;5.50;;;;;;;20.01;87.03;96083.16;5113206;27;20123;-74
2023/07/19 05:49:22;;;;;;;12.68;5.35;;;;;;;20.10;87.99;96077.28;5112368;27;20039;-74
2023/07/19 05:51:50;;;;;;;13.27;5.78;;;;;;;20.22;88.26;96089.97;5113135;27;20035;-74
2023/07/19 05:54:16;;;;;;;15.52;5.13;;;;;;;20.05;87.21;96094.22;5111775;28;20052;-74
2023/07/19 05:56:43;;;;;;;10.13;5.18;;;;;;;20.20;86.78;96070.19;5112807;28;20600;-74
2023/07/19 05:59:11;;;;;;;13.00;5.22;;;;;;;20.33;87.93;96054.88;5112040;27;20040;-75
2023/07/19 06:01:37;;;;;;;9.55;4.68;;;;;;;20.44;87.08;96058.47;5112873;27;20537;-75
2023/07/19 06:04:05;;;;;;;11.98;5.55;;;;;;;20.44;87.63;96047.41;5112309;27;20375;-74
2023/07/19 06:06:32;;;;;;;10.07;5.35;;;;;;;20.53;87.31;96056.16;5113129;27;20043;-75
2023/07/19 06:08:58;;;;;;;11.82;5.28;;;;;;;20.65;87.33;96066.09;5112515;27;20040;-75
2023/07/19 06:11:25;;;;;;;14.80;5.93;;;;;;;20.50;85.16;96068.00;5112056;27;20133;-75
2023/07/19 06:13:52;;;;;;;13.02;5.53;;;;;;;20.61;85.77;96073.56;5111896;27;20035;-75
2023/07/19 06:16:20;;;;;;;10.65;5.45;;;;;;;20.78;85.31;96077.59;5112024;27;20056;-74
2023/07/19 06:18:46;;;;;;;13.80;5.50;;;;;;;20.69;84.27;96079.94;5112561;27;20050;-74
2023/07/19 06:21:13;;;;;;;11.15;5.65;;;;;;;20.83;84.32;96080.00;5111920;27;20048;-75
2023/07/19 06:23:39;;;;;;;13.70;5.15;;;;;;;20.82;83.49;96076.41;5112289;27;20092;-75
2023/07/19 06:26:06;;;;;;;16.92;5.57;;;;;;;20.83;82.70;96066.94;5111851;27;20048;-75
2023/07/19 06:28:32;;;;;;;10.23;5.13;;;;;;;20.95;83.90;96065.78;5112416;27;20046;-75
2023/07/19 06:30:59;;;;;;;12.43;5.55;;;;;;;20.95;82.63;96067.75;5100978;28;20045;-74
2023/07/19 06:33:28;;;;;;;10.70;5.72;;;;;;;21.07;82.34;96070.94;5099397;28;20037;-74
2023/07/19 06:35:55;;;;;;;10.38;5.50;;;;;;;21.18;81.71;96070.16;5097273;28;20052;-74
2023/07/19 06:38:21;;;;;;;12.40;5.25;;;;;;;21.39;83.47;96078.50;5095479;28;20052;-74
2023/07/19 06:40:48;;;;;;;14.38;5.30;;;;;;;21.44;81.15;96080.88;5101548;27;20131;-73
2023/07/19 06:43:15;;;;;;;13.05;5.50;;;;;;;21.47;80.33;96084.84;5100278;27;20085;-72
2023/07/19 06:45:41;;;;;;;13.00;5.50;;;;;;;21.59;79.94;96082.47;5111481;28;20050;-72
2023/07/19 06:48:08;;;;;;;14.98;5.82;;;;;;;21.62;79.15;96067.06;5111575;27;20071;-73
2023/07/19 06:50:36;;;;;;;13.75;5.07;;;;;;;21.67;78.66;96060.31;5111794;27;20045;-73
2023/07/19 06:53:02;;;;;;;11.38;5.57;;;;;;;21.73;78.96;96061.50;5110590;27;20126;-73
2023/07/19 06:55:29;;;;;;;11.30;5.32;;;;;;;21.88;79.51;96054.75;5111908;28;20043;-73
2023/07/19 06:57:55;;;;;;;12.13;5.65;;;;;;;22.03;79.53;96066.56;5111957;27;20527;-73
2023/07/19 07:00:22;;;;;;;11.10;5.07;;;;;;;22.01;76.19;96069.75;5110976;27;20048;-73
2023/07/19 07:02:49;;;;;;;15.07;5.00;;;;;;;22.11;76.77;96085.59;5111466;27;20040;-73
2023/07/19 07:05:16;;;;;;;11.98;5.00;;;;;;;22.10;76.52;96084.03;5110361;27;20043;-74
2023/07/19 07:07:43;;;;;;;9.82;4.75;;;;;;;22.20;75.91;96081.63;5110692;27;20059;-73
2023/07/19 07:10:10;;;;;;;11.90;4.88;;;;;;;22.27;76.37;96089.94;5101359;27;20513;-74
2023/07/19 07:12:36;;;;;;;11.13;4.70;;;;;;;22.13;73.74;96088.78;5098659;28;20062;-73
2023/07/19 07:15:04;;;;;;;12.77;5.00;;;;;;;22.18;73.97;96095.09;5110995;27;20051;-74
2023/07/19 07:17:30;;;;;;;14.10;5.75;;;;;;;22.23;73.94;96097.47;5111109;27;20043;-73
2023/07/19 07:19:57;;;;;;;15.18;5.13;;;;;;;22.27;73.75;96101.81;5111253;28;20051;-73
2023/07/19 07:22:23;;;;;;;13.50;5.50;;;;;;;22.36;73.85;96104.19;5111142;28;20800;-73
2023/07/19 07:24:51;;;;;;;12.00;5.15;;;;;;;22.55;74.63;96119.56;5111281;28;20056;-73
2023/07/19 07:27:18;;;;;;;12.48;5.43;;;;;;;22.64;74.47;96133.81;5110590;27;20040;-74
2023/07/19 07:29:44;;;;;;;12.13;4.95;;;;;;;22.72;74.33;96131.81;5110748;27;20512;-73
2023/07/19 07:32:11;;;;;;;11.65;5.20;;;;;;;22.74;71.11;96126.63;5110600;27;20035;-72
2023/07/19 07:34:38;;;;;;;10.63;4.88;;;;;;;22.84;72.33;96121.03;5110840;27;20044;-73
2023/07/19 07:37:05;;;;;;;15.70;5.80;;;;;;;22.94;72.22;96125.00;5110368;27;20044;-73
2023/07/19 07:39:34;;;;;;;13.98;6.30;;;;;;;23.09;71.11;96126.50;5110925;27;20038;-72
2023/07/19 07:42:02;;;;;;;17.00;5.68;;;;;;;23.03;74.37;96128.13;5100013;28;20044;-73
2023/07/19 07:44:29;;;;;;;12.40;5.45;;;;;;;23.06;74.24;96121.75;5095975;28;20436;-73
2023/07/19 07:46:55;;;;;;;12.70;5.72;;;;;;;23.12;72.47;96125.69;5110036;27;20094;-74
2023/07/19 07:49:22;;;;;;;9.77;5.78;;;;;;;23.26;72.67;96112.91;5110194;27;20048;-73
2023/07/19 07:51:48;;;;;;;12.05;5.00;;;;;;;23.47;72.67;96107.19;5110703;27;20040;-72
2023/07/19 07:54:14;;;;;;;10.02;5.55;;;;;;;23.41;68.77;96109.63;5110330;27;20051;-73
2023/07/19 07:56:42;;;;;;;15.75;6.20;;;;;;;23.59;72.43;96100.34;5110967;27;20197;-73
2023/07/19 07:59:09;;;;;;;11.25;5.78;;;;;;;23.68;71.49;96098.72;5108935;27;20130;-73
2023/07/19 08:01:36;;;;;;;10.45;5.30;;;;;;;23.89;68.73;96103.31;5110862;28;20044;-73
2023/07/19 08:04:06;;;;;;;13.85;5.53;;;;;;;23.99;67.41;96104.41;5110466;28;20050;-73
2023/07/19 08:06:32;;;;;;;14.10;6.13;;;;;;;24.14;68.76;96102.28;5110562;28;20051;-73
2023/07/19 08:08:59;;;;;;;9.70;5.10;;;;;;;24.31;67.58;96097.75;5109963;28;20031;-73
2023/07/19 08:11:26;;;;;;;10.70;5.40;;;;;;;24.40;64.76;96092.50;5109443;27;20382;-74
2023/07/19 08:13:53;;;;;;;14.60;6.00;;;;;;;24.48;61.88;96094.00;5109560;27;20139;-73
2023/07/19 08:16:21;;;;;;;10.82;5.40;;;;;;;24.53;62.21;96099.09;5105602;28;20048;-73
2023/07/19 08:18:47;;;;;;;12.40;6.25;;;;;;;24.51;62.49;96095.97;5110440;28;20422;-74
2023/07/19 08:21:14;;;;;;;13.48;6.22;;;;;;;24.53;63.93;96092.75;5109922;28;20043;-73
2023/07/19 08:23:40;;;;;;;11.10;5.93;;;;;;;24.78;63.63;96092.47;5110745;28;20040;-73
2023/07/19 08:26:07;;;;;;;13.20;5.32;;;;;;;24.90;60.95;96094.69;5109826;27;20044;-73
2023/07/19 08:28:33;;;;;;;12.65;6.00;;;;;;;25.05;60.32;96096.06;5111894;28;20053;-73
2023/07/19 08:31:00;;;;;;;8.82;5.30;;;;;;;25.15;62.19;96089.59;5111440;28;20110;-73
2023/07/19 08:33:28;;;;;;;8.43;5.00;;;;;;;25.19;59.72;96084.75;5113127;28;20054;-74
2023/07/19 08:35:54;;;;;;;11.88;5.72;;;;;;;25.18;60.85;96072.03;5112816;27;20042;-74
2023/07/19 08:38:21;;;;;;;9.80;5.32;;;;;;;25.48;58.85;96065.63;5112213;27;20043;-74
2023/07/19 08:40:58;;;;;;;12.38;5.20;;;;;;;25.69;57.27;96070.06;5105253;27;20040;-73
2023/07/19 08:43:26;;;;;;;9.88;5.85;;;;;;;25.80;57.62;96063.53;5102057;27;20050;-74
2023/07/19 08:45:53;;;;;;;11.57;4.88;;;;;;;25.92;57.36;96060.13;5113760;27;20035;-74
2023/07/19 08:48:20;;;;;;;8.65;4.90;;;;;;;25.90;56.08;96059.78;5112855;27;20047;-73
2023/07/19 08:50:54;;;;;;;10.13;4.97;;;;;;;25.70;55.64;96057.69;5115283;27;20043;-73
2023/07/19 08:53:21;;;;;;;11.18;4.28;;;;;;;25.63;54.99;96057.81;5116137;27;20430;-74
2023/07/19 08:55:47;;;;;;;7.47;4.32;;;;;;;25.68;54.83;96060.09;5115377;27;20044;-74
2023/07/19 08:58:16;;;;;;;8.65;4.78;;;;;;;25.77;55.78;96057.59;5115423;27;20048;-74
2023/07/19 09:00:42;;;;;;;8.07;4.15;;;;;;;25.74;55.72;96058.44;5110014;28;20050;-74
2023/07/19 09:03:09;;;;;;;6.68;3.88;;;;;;;25.72;51.26;96069.19;5109524;27;20660;-74
2023/07/19 09:05:38;;;;;;;7.88;3.58;;;;;;;25.81;47.71;96073.47;5110247;27;20104;-74
2023/07/19 09:08:08;;;;;;;8.30;3.72;;;;;;;25.70;48.85;96068.84;5109783;27;20047;-77
2023/07/19 09:10:34;;;;;;;10.10;4.18;;;;;;;25.73;49.85;96062.41;5110350;27;20096;-74
2023/07/19 09:13:04;;;;;;;7.50;4.25;;;;;;;25.75;49.74;96073.19;5109697;27;20491;-74
2023/07/19 09:15:31;;;;;;;5.82;3.63;;;;;;;25.82;48.71;96080.63;5109716;27;20048;-74
2023/07/19 09:17:57;;;;;;;6.35;3.90;;;;;;;25.91;47.11;96084.44;5109816;28;20043;-74
2023/07/19 09:20:28;;;;;;;6.47;3.20;;;;;;;25.93;46.66;96076.44;5113838;28;20042;-76
2023/07/19 09:22:57;;;;;;;8.30;3.28;;;;;;;25.98;44.62;96078.75;5113876;28;20036;-74
2023/07/19 09:25:25;;;;;;;8.00;3.28;;;;;;;25.95;45.39;96079.59;5114665;28;20051;-76
2023/07/19 09:27:53;;;;;;;8.75;3.63;;;;;;;26.02;46.60;96084.25;5115432;27;20047;-79
2023/07/19 09:30:19;;;;;;;6.28;3.60;;;;;;;25.92;46.25;96085.25;5118335;27;20047;-74
2023/07/19 09:32:58;;;;;;;6.90;3.60;;;;;;;25.92;46.58;96074.09;5117743;27;20050;-73
2023/07/19 09:35:27;;;;;;;7.78;3.63;;;;;;;25.91;46.04;96084.44;5113468;27;20046;-72
2023/07/19 09:37:54;;;;;;;9.32;3.83;;;;;;;26.02;46.53;96095.44;5113778;27;20096;-73
2023/07/19 09:40:21;;;;;;;6.43;3.35;;;;;;;26.00;45.17;96092.28;5112200;27;20048;-73
2023/07/19 09:42:50;;;;;;;5.65;3.33;;;;;;;26.00;46.25;96089.50;5110889;27;20046;-72
2023/07/19 09:45:17;;;;;;;5.88;3.38;;;;;;;25.93;47.05;96086.81;5113391;27;20051;-73
2023/07/19 09:47:45;;;;;;;7.22;3.22;;;;;;;25.97;45.39;96087.53;5114016;27;20047;-73
2023/07/19 09:50:12;;;;;;;5.70;3.33;;;;;;;26.06;44.94;96096.16;5113264;27;20044;-73
2023/07/19 09:52:39;;;;;;;5.40;3.22;;;;;;;25.98;45.09;96089.13;5113452;27;20048;-72
2023/07/19 09:55:07;;;;;;;9.15;2.92;;;;;;;26.21;43.62;96091.91;5113084;27;20047;-72
2023/07/19 09:57:36;;;;;;;7.63;3.17;;;;;;;26.14;44.10;96094.81;5113460;27;20040;-72
2023/07/19 10:00:05;;;;;;;14.95;4.18;;;;;;;26.22;43.09;96082.31;5112624;27;20044;-72
2023/07/19 10:02:32;;;;;;;5.85;3.10;;;;;;;26.10;45.79;96080.16;5112841;27;20062;-72
2023/07/19 10:05:08;;;;;;;9.45;3.33;;;;;;;26.19;44.33;96094.31;5112500;28;20050;-75
2023/07/19 10:07:35;;;;;;;7.20;3.47;;;;;;;26.25;42.84;96087.00;5112578;27;20458;-74
2023/07/19 10:10:03;;;;;;;5.35;3.15;;;;;;;26.42;44.71;96084.38;5111767;28;20051;-73
2023/07/19 10:12:31;;;;;;;5.53;2.92;;;;;;;26.61;42.86;96080.78;5092653;28;20050;-75
2023/07/19 10:15:01;;;;;;;6.50;3.30;;;;;;;26.53;42.48;96080.16;5101768;28;20499;-75
2023/07/19 10:17:30;;;;;;;6.82;3.10;;;;;;;26.68;43.14;96074.28;5112613;27;20113;-72
2023/07/19 10:20:14;;;;;;;6.90;3.20;;;;;;;26.75;40.89;96080.50;5112649;27;20498;-72
2023/07/19 10:22:48;;;;;;;6.13;2.97;;;;;;;26.89;40.33;96067.47;5111207;27;20039;-73
2023/07/19 10:25:16;;;;;;;5.70;2.80;;;;;;;26.96;41.00;96072.88;5113629;28;20047;-73
2023/07/19 10:27:42;;;;;;;6.03;3.45;;;;;;;26.93;42.37;96068.13;5114891;28;20050;-73
2023/07/19 10:30:09;;;;;;;9.13;3.13;;;;;;;27.13;40.16;96070.94;5114212;27;20050;-73
2023/07/19 10:32:37;;;;;;;5.38;2.90;;;;;;;27.10;41.71;96064.22;5112842;28;20043;-73
2023/07/19 10:35:04;;;;;;;10.65;3.17;;;;;;;27.21;41.21;96059.16;5112295;27;20047;-72
2023/07/19 10:37:31;;;;;;;6.38;3.35;;;;;;;27.29;39.46;96057.78;5113298;28;20036;-73
2023/07/19 10:39:57;;;;;;;5.50;3.15;;;;;;;27.24;40.22;96051.91;5111524;27;20117;-73
2023/07/19 10:42:25;;;;;;;10.20;3.22;;;;;;;27.17;39.20;96055.66;5111266;27;20486;-73
2023/07/19 10:44:51;;;;;;;7.43;3.15;;;;;;;27.27;39.82;96049.03;5110089;27;20036;-73
2023/07/19 10:47:19;;;;;;;4.57;2.85;;;;;;;27.03;40.40;96055.94;5111477;27;20054;-72
2023/07/19 10:49:48;;;;;;;7.35;3.30;;;;;;;27.03;42.67;96039.19;5111733;27;20050;-73
2023/07/19 10:52:20;;;;;;;4.25;2.78;;;;;;;27.22;39.95;96041.16;5111087;27;20048;-72
2023/07/19 10:54:55;;;;;;;6.25;2.70;;;;;;;27.36;41.30;96034.47;5111657;27;20048;-73
2023/07/19 10:57:22;;;;;;;5.25;2.97;;;;;;;27.48;41.53;96035.78;5110884;27;21554;-73
2023/07/19 10:59:50;;;;;;;5.75;3.20;;;;;;;27.54;39.93;96031.22;5111544;28;20043;-73
2023/07/19 11:02:17;;;;;;;6.70;3.25;;;;;;;27.30;40.61;96025.81;5106961;27;20048;-74
2023/07/19 11:04:44;;;;;;;7.07;3.58;;;;;;;27.45;38.61;96017.06;5110567;28;20555;-73
2023/07/19 11:07:12;;;;;;;7.18;3.35;;;;;;;27.57;39.22;96016.38;5112376;27;20078;-73
2023/07/19 11:09:42;;;;;;;8.48;3.15;;;;;;;27.66;37.74;96012.94;5113882;27;20097;-74
2023/07/19 11:12:09;;;;;;;5.63;3.20;;;;;;;27.75;39.82;96016.72;5100381;28;20078;-74
2023/07/19 11:14:42;;;;;;;8.38;3.22;;;;;;;27.72;39.30;96012.03;5094111;28;20064;-73
2023/07/19 11:17:09;;;;;;;5.55;3.00;;;;;;;27.71;39.32;96027.22;5094953;28;20052;-73
2023/07/19 11:19:38;;;;;;;7.35;3.53;;;;;;;27.63;38.90;96017.41;5094409;28;20402;-74
2023/07/19 11:22:05;;;;;;;5.78;3.13;;;;;;;27.67;39.89;96026.50;5107538;28;20108;-75
2023/07/19 11:24:37;;;;;;;7.65;2.95;;;;;;;27.77;39.76;96031.09;5116795;27;20047;-73
2023/07/19 11:27:04;;;;;;;7.63;2.85;;;;;;;27.76;37.55;96017.50;5114302;28;20042;-73
2023/07/19 11:29:32;;;;;;;5.18;3.65;;;;;;;27.66;37.32;96015.75;5113835;27;20047;-73
2023/07/19 11:32:16;;;;;;;6.80;3.08;;;;;;;27.62;37.83;96018.66;5114450;27;20043;-73